This is the latest recevied weather packets stored in our database for station/object N7NIP. If no packets are shown the sender has not sent any weather packets the latest 10 day(s).
| Time | Temp. | Humidity | Pressure | Rain* | Wind** | Luminosity | Snow |
|---|---|---|---|---|---|---|---|
| 1777947212 | 21.67° C | 48% | 1023.7 hPa | 0 mm | - | 45 W/m² | - |
| 1777946908 | 22.22° C | 46% | 1023.7 hPa | 0 mm | - | 48 W/m² | - |
| 1777946604 | 22.78° C | 45% | 1023.7 hPa | 0 mm | - | 49 W/m² | - |
| 1777946301 | 22.78° C | 45% | 1023.7 hPa | 0 mm | - | 53 W/m² | - |
| 1777945998 | 23.33° C | 43% | 1023.6 hPa | 0 mm | - | 57 W/m² | - |
| 1777945696 | 23.89° C | 42% | 1023.5 hPa | 0 mm | - | 56 W/m² | - |
| 1777945392 | 24.44° C | 40% | 1023.7 hPa | 0 mm | - | 144 W/m² | - |
| 1777945089 | 25° C | 38% | 1023.6 hPa | 0 mm | - | 158 W/m² | - |
| 1777944786 | 25° C | 36% | 1023.7 hPa | 0 mm | - | 174 W/m² | - |
| 1777944485 | 25.56° C | 34% | 1023.6 hPa | 0 mm | - | 191 W/m² | - |
| 1777944182 | 25.56° C | 34% | 1023.6 hPa | 0 mm | - | 207 W/m² | - |
| 1777943877 | 25° C | 35% | 1023.7 hPa | 0 mm | - | 223 W/m² | - |
| 1777943575 | 25.56° C | 38% | 1023.5 hPa | 0 mm | - | 239 W/m² | - |
| 1777943270 | 25° C | 38% | 1023.6 hPa | 0 mm | - | 257 W/m² | - |
| 1777942967 | 25° C | 38% | 1023.7 hPa | 0 mm | - | 278 W/m² | - |
| 1777942663 | 25° C | 36% | 1023.7 hPa | 0 mm | - | 301 W/m² | - |
| 1777942360 | 25.56° C | 36% | 1023.8 hPa | 0 mm | - | 319 W/m² | - |
| 1777942057 | 26.11° C | 35% | 1023.7 hPa | 0 mm | - | 334 W/m² | - |
| 1777941753 | 25.56° C | 37% | 1023.8 hPa | 0 mm | - | 349 W/m² | - |
| 1777941451 | 25.56° C | 36% | 1024 hPa | 0 mm | - | 357 W/m² | - |
| 1777941149 | 26.11° C | 36% | 1023.6 hPa | 0 mm | - | 378 W/m² | - |
| 1777940845 | 25.56° C | 38% | 1023.7 hPa | 0 mm | - | 400 W/m² | - |
| 1777940542 | 25.56° C | 41% | 1023.7 hPa | 0 mm | - | 408 W/m² | - |
| 1777940240 | 25.56° C | 38% | 1023.6 hPa | 0 mm | - | 428 W/m² | - |
| 1777939937 | 25.56° C | 37% | 1023.8 hPa | 0 mm | - | 444 W/m² | - |
* Rain latest hour (hover to see other rain measurements)
** Current wind speed in m/s (hover to see current wind gust speed)